Time;durP1;ratioP1;P1;durP2;ratioP2;P2;SDS_P1;SDS_P2;PMS_P1;PMS_P2;Temp;Humidity;BMP_temperature;BMP_pressure;BME280_temperature;BME280_humidity;BME280_pressure;Samples;Min_cycle;Max_cycle;Signal;HPM_P1;HPM_P2
2022/06/20 00:00:36;;;;;;;5.73;3.30;;;18.50;99.90;;;;;;5096537;28;20478;-35
2022/06/20 00:03:03;;;;;;;3.30;2.27;;;18.40;99.90;;;;;;5096653;28;20414;-38
2022/06/20 00:05:32;;;;;;;4.33;2.20;;;18.40;99.90;;;;;;5096774;28;20470;-45
2022/06/20 00:07:59;;;;;;;3.67;2.43;;;18.40;99.90;;;;;;5097479;28;20590;-43
2022/06/20 00:10:29;;;;;;;2.80;2.03;;;18.40;99.90;;;;;;5096947;28;20455;-39
2022/06/20 00:12:57;;;;;;;3.50;2.20;;;18.40;99.90;;;;;;5097234;28;20450;-50
2022/06/20 00:15:26;;;;;;;3.10;1.90;;;18.40;99.90;;;;;;5091010;28;20509;-48
2022/06/20 00:17:58;;;;;;;3.90;2.13;;;18.30;99.90;;;;;;5085989;28;20454;-39
2022/06/20 00:20:25;;;;;;;5.53;2.60;;;18.30;99.90;;;;;;5095636;28;20494;-38
2022/06/20 00:22:52;;;;;;;2.70;2.23;;;18.20;99.90;;;;;;5095851;28;20502;-37
2022/06/20 00:25:19;;;;;;;10.93;2.67;;;18.10;99.90;;;;;;5095318;28;20502;-38
2022/06/20 00:27:46;;;;;;;3.83;2.73;;;18.00;99.90;;;;;;5095371;28;20456;-35
2022/06/20 00:30:16;;;;;;;4.50;2.63;;;18.00;99.90;;;;;;5096528;28;20533;-43
2022/06/20 00:32:43;;;;;;;6.10;3.20;;;17.90;99.90;;;;;;5091004;28;20616;-39
2022/06/20 00:35:12;;;;;;;3.90;2.80;;;17.90;99.90;;;;;;5084767;28;20515;-39
2022/06/20 00:37:45;;;;;;;4.77;3.13;;;17.90;99.90;;;;;;5095663;28;20438;-39
2022/06/20 00:40:24;;;;;;;4.93;3.03;;;17.80;99.90;;;;;;5095870;28;20447;-41
2022/06/20 00:42:52;;;;;;;5.97;2.67;;;17.80;99.90;;;;;;5096030;28;20430;-38
2022/06/20 00:45:21;;;;;;;7.70;4.00;;;17.80;99.90;;;;;;5096035;28;20458;-37
2022/06/20 00:47:51;;;;;;;5.27;3.10;;;17.70;99.90;;;;;;5095235;28;20470;-37
2022/06/20 00:50:25;;;;;;;7.97;3.50;;;17.70;99.90;;;;;;5096165;28;20485;-38
2022/06/20 00:52:58;;;;;;;5.27;3.37;;;17.70;99.90;;;;;;5094837;28;20530;-37
2022/06/20 00:55:30;;;;;;;11.10;3.43;;;17.70;99.90;;;;;;5082199;28;20492;-39
2022/06/20 00:58:03;;;;;;;4.80;2.57;;;17.70;99.90;;;;;;5095712;28;20450;-37
2022/06/20 01:00:34;;;;;;;5.27;2.60;;;17.70;99.90;;;;;;5095304;28;20473;-38
2022/06/20 01:03:07;;;;;;;9.23;3.00;;;17.70;99.90;;;;;;5096073;28;20533;-38
2022/06/20 01:05:41;;;;;;;4.97;3.80;;;17.60;99.90;;;;;;5095202;28;20454;-38
2022/06/20 01:08:11;;;;;;;7.93;3.00;;;17.60;99.90;;;;;;5095412;28;20675;-38
2022/06/20 01:10:43;;;;;;;3.80;3.20;;;17.50;99.90;;;;;;5095182;28;20494;-38
2022/06/20 01:13:15;;;;;;;3.77;2.90;;;17.60;99.90;;;;;;5095561;28;20508;-38
2022/06/20 01:15:44;;;;;;;7.27;4.50;;;17.60;99.90;;;;;;5083311;28;20938;-43
2022/06/20 01:18:18;;;;;;;7.90;5.33;;;17.60;99.90;;;;;;5092119;28;20457;-37
2022/06/20 01:20:47;;;;;;;5.53;3.70;;;17.60;99.90;;;;;;5095030;28;20501;-36
2022/06/20 01:23:29;;;;;;;7.83;4.87;;;17.60;99.90;;;;;;5080710;28;20445;-38
2022/06/20 01:26:08;;;;;;;8.10;4.73;;;17.50;99.90;;;;;;5094316;28;20477;-37
2022/06/20 01:28:40;;;;;;;9.37;5.43;;;17.60;99.90;;;;;;5094840;28;20447;-37
2022/06/20 01:31:08;;;;;;;12.43;6.27;;;17.60;99.90;;;;;;5095009;28;20466;-35
2022/06/20 01:33:43;;;;;;;12.60;6.57;;;17.50;99.90;;;;;;5095210;28;20490;-38
2022/06/20 01:39:01;;;;;;;17.03;7.23;;;17.40;99.90;;;;;;5069085;28;20427;-42
2022/06/20 01:44:15;;;;;;;14.83;7.40;;;17.20;99.90;;;;;;5098850;28;20425;-39
2022/06/20 01:46:42;;;;;;;9.40;6.87;;;17.20;99.90;;;;;;5099810;28;20537;-39
2022/06/20 01:49:13;;;;;;;8.73;5.37;;;17.10;99.90;;;;;;5099635;28;20445;-37
2022/06/20 01:51:44;;;;;;;8.97;5.10;;;17.10;99.90;;;;;;5082869;28;20545;-38
2022/06/20 01:54:13;;;;;;;12.93;4.83;;;17.10;99.90;;;;;;5098420;28;20478;-38
2022/06/20 01:56:42;;;;;;;9.60;4.90;;;17.00;99.90;;;;;;5099811;28;20473;-42
2022/06/20 01:59:12;;;;;;;9.53;5.43;;;17.00;99.90;;;;;;5099670;28;20441;-39
2022/06/20 02:01:44;;;;;;;8.37;5.43;;;17.00;99.90;;;;;;5098918;28;20479;-38
2022/06/20 02:04:18;;;;;;;11.93;7.33;;;17.00;99.90;;;;;;5099340;28;20454;-39
2022/06/20 02:06:48;;;;;;;16.10;5.63;;;17.00;99.90;;;;;;5098705;28;20466;-38
2022/06/20 02:09:16;;;;;;;17.53;5.10;;;16.90;99.90;;;;;;5099062;28;20526;-39
2022/06/20 02:11:45;;;;;;;11.57;5.50;;;16.90;99.90;;;;;;5098859;28;20478;-36
2022/06/20 02:14:19;;;;;;;6.37;3.60;;;17.00;99.90;;;;;;5098384;28;20446;-38
2022/06/20 02:16:55;;;;;;;6.80;3.60;;;17.00;99.90;;;;;;5098586;28;20455;-37
2022/06/20 02:19:27;;;;;;;7.93;3.23;;;17.00;99.90;;;;;;5098794;28;20423;-38
2022/06/20 02:22:00;;;;;;;10.93;4.00;;;16.90;99.90;;;;;;5098635;28;20473;-38
2022/06/20 02:24:32;;;;;;;11.10;3.97;;;16.90;99.90;;;;;;5099451;28;20422;-37
2022/06/20 02:27:02;;;;;;;7.53;3.83;;;16.90;99.90;;;;;;5099083;28;20460;-37
2022/06/20 02:29:30;;;;;;;10.90;5.00;;;16.90;99.90;;;;;;5099013;28;20453;-35
2022/06/20 02:32:07;;;;;;;6.80;4.40;;;16.90;99.90;;;;;;5099392;28;20485;-34
2022/06/20 02:34:34;;;;;;;13.20;4.83;;;16.90;99.90;;;;;;5099185;28;20440;-36
2022/06/20 02:37:07;;;;;;;6.40;4.47;;;16.90;99.90;;;;;;5083974;28;20966;-39
2022/06/20 02:39:36;;;;;;;8.50;3.97;;;16.90;99.90;;;;;;5087193;28;20422;-37
2022/06/20 02:42:08;;;;;;;16.17;4.57;;;16.90;99.90;;;;;;5090008;28;20470;-36
2022/06/20 02:44:36;;;;;;;7.87;4.93;;;16.90;99.90;;;;;;5098496;28;20414;-39
2022/06/20 02:47:12;;;;;;;7.63;4.83;;;16.90;99.90;;;;;;5098074;28;20457;-41
2022/06/20 02:49:43;;;;;;;7.23;3.27;;;16.90;99.90;;;;;;5098705;28;20438;-41
2022/06/20 02:52:16;;;;;;;10.10;4.20;;;16.90;99.90;;;;;;5098669;28;20494;-37
2022/06/20 02:54:43;;;;;;;6.63;3.77;;;16.90;99.90;;;;;;5097039;28;20474;-38
2022/06/20 02:57:13;;;;;;;9.00;4.00;;;16.90;99.90;;;;;;5098458;28;20462;-39
2022/06/20 02:59:46;;;;;;;6.20;3.83;;;17.00;99.90;;;;;;5098371;28;20430;-39
2022/06/20 03:02:16;;;;;;;5.20;3.37;;;16.90;99.90;;;;;;5098024;28;20477;-38
2022/06/20 03:04:46;;;;;;;6.63;3.50;;;16.90;99.90;;;;;;5098204;28;20522;-40
2022/06/20 03:07:15;;;;;;;5.57;3.50;;;17.00;99.90;;;;;;5098461;28;20473;-35
2022/06/20 03:09:44;;;;;;;6.63;2.77;;;17.00;99.90;;;;;;5098259;28;20482;-37
2022/06/20 03:12:13;;;;;;;13.43;3.97;;;17.00;99.90;;;;;;5097791;28;20838;-38
2022/06/20 03:14:45;;;;;;;8.00;3.00;;;17.10;99.90;;;;;;5098057;28;20553;-37
2022/06/20 03:17:16;;;;;;;8.30;3.37;;;17.10;99.90;;;;;;5097897;28;20481;-38
2022/06/20 03:19:48;;;;;;;5.00;2.63;;;17.10;99.90;;;;;;5097191;28;20454;-36
2022/06/20 03:22:22;;;;;;;6.40;3.00;;;17.10;99.90;;;;;;5096734;28;20554;-38
2022/06/20 03:24:54;;;;;;;4.87;2.10;;;17.10;99.90;;;;;;5096934;28;20415;-37
2022/06/20 03:27:24;;;;;;;5.50;2.33;;;17.10;99.90;;;;;;5097051;28;20466;-39
2022/06/20 03:29:54;;;;;;;5.20;2.60;;;17.00;99.90;;;;;;5097119;28;20427;-38
2022/06/20 03:32:23;;;;;;;4.63;3.00;;;17.10;99.90;;;;;;5097517;28;20517;-39
2022/06/20 03:34:57;;;;;;;5.70;3.03;;;17.20;99.90;;;;;;5097243;28;20460;-38
2022/06/20 03:37:30;;;;;;;6.07;3.27;;;17.10;99.90;;;;;;5097441;28;20474;-36
2022/06/20 03:39:57;;;;;;;4.90;2.97;;;17.20;99.90;;;;;;5097868;28;20442;-37
2022/06/20 03:42:24;;;;;;;6.50;3.40;;;17.20;99.90;;;;;;5097200;28;20525;-38
2022/06/20 03:44:55;;;;;;;4.50;3.07;;;17.20;99.90;;;;;;5097277;28;20446;-41
2022/06/20 03:47:28;;;;;;;4.47;3.10;;;17.20;99.90;;;;;;5097101;28;20466;-40
2022/06/20 03:50:02;;;;;;;8.17;3.40;;;17.30;99.90;;;;;;5097380;28;20435;-37
2022/06/20 03:52:35;;;;;;;6.50;3.60;;;17.30;99.90;;;;;;5096343;28;20526;-37
2022/06/20 03:55:08;;;;;;;8.50;3.83;;;17.20;99.90;;;;;;5096543;28;20450;-38
2022/06/20 03:57:40;;;;;;;7.30;3.50;;;17.10;99.90;;;;;;5096223;28;20463;-39
2022/06/20 04:00:11;;;;;;;6.33;3.47;;;17.10;99.90;;;;;;5096107;28;20423;-38
2022/06/20 04:02:47;;;;;;;4.30;3.07;;;17.10;99.90;;;;;;5097245;28;20554;-37
2022/06/20 04:05:19;;;;;;;7.07;3.90;;;17.10;99.90;;;;;;5096172;28;20430;-38
2022/06/20 04:07:54;;;;;;;7.93;3.40;;;17.10;99.90;;;;;;5096295;28;20473;-39
2022/06/20 04:13:17;;;;;;;4.93;3.00;;;17.10;99.90;;;;;;5096352;28;20476;-36
2022/06/20 04:15:52;;;;;;;6.83;2.97;;;17.10;99.90;;;;;;5093639;28;21049;-39
2022/06/20 04:18:29;;;;;;;5.77;2.60;;;17.20;99.90;;;;;;5085887;28;20601;-36
2022/06/20 04:21:03;;;;;;;3.60;3.00;;;17.20;99.90;;;;;;5096743;28;20439;-37
2022/06/20 04:23:35;;;;;;;4.40;3.40;;;17.20;99.90;;;;;;5096385;28;20521;-38
2022/06/20 04:26:06;;;;;;;12.00;4.30;;;17.30;99.90;;;;;;5096507;28;20458;-45
2022/06/20 04:28:38;;;;;;;5.40;2.77;;;17.40;99.90;;;;;;5096329;28;20446;-39
2022/06/20 04:31:14;;;;;;;4.50;3.20;;;17.40;99.90;;;;;;5096218;28;20494;-37
2022/06/20 04:33:46;;;;;;;4.10;2.60;;;17.50;99.90;;;;;;5096117;28;20569;-39
2022/06/20 04:36:24;;;;;;;6.43;3.33;;;17.50;99.90;;;;;;5096475;28;20466;-36
2022/06/20 04:39:00;;;;;;;3.53;2.53;;;17.50;99.90;;;;;;5095909;28;20458;-36
2022/06/20 04:41:36;;;;;;;5.80;2.80;;;17.60;99.90;;;;;;5096047;28;20438;-36
2022/06/20 04:44:09;;;;;;;4.23;2.67;;;17.70;99.90;;;;;;5093341;28;20426;-36
2022/06/20 04:46:43;;;;;;;4.20;3.33;;;17.70;99.90;;;;;;5083527;28;20437;-38
2022/06/20 04:49:15;;;;;;;9.50;3.40;;;17.60;99.90;;;;;;5096074;28;20434;-37
2022/06/20 04:51:45;;;;;;;6.80;3.53;;;17.70;99.90;;;;;;5095242;28;20465;-35
2022/06/20 04:54:19;;;;;;;10.53;3.40;;;17.70;99.90;;;;;;5095399;28;20481;-38
2022/06/20 04:56:46;;;;;;;6.43;3.73;;;17.60;99.90;;;;;;5095636;28;20473;-37
2022/06/20 04:59:17;;;;;;;6.50;4.23;;;17.60;99.90;;;;;;5095886;28;20438;-37
2022/06/20 05:01:45;;;;;;;10.03;3.03;;;17.60;99.90;;;;;;5095122;28;20485;-37
2022/06/20 05:04:28;;;;;;;5.60;2.87;;;17.60;99.90;;;;;;5095489;28;20465;-38
2022/06/20 05:06:58;;;;;;;5.60;3.17;;;17.40;99.90;;;;;;5094595;28;20465;-41
2022/06/20 05:09:32;;;;;;;3.93;2.77;;;17.40;99.90;;;;;;5096236;28;20435;-38
2022/06/20 05:12:06;;;;;;;5.40;3.17;;;17.30;99.90;;;;;;5094667;28;20507;-38
2022/06/20 05:14:41;;;;;;;5.70;3.63;;;17.30;99.90;;;;;;5095068;28;20464;-35
2022/06/20 05:17:16;;;;;;;3.90;2.70;;;17.30;99.90;;;;;;5093291;28;20454;-36
2022/06/20 05:19:47;;;;;;;10.03;4.30;;;17.30;99.90;;;;;;5085458;28;20509;-36
2022/06/20 05:22:19;;;;;;;8.10;3.77;;;17.20;99.90;;;;;;5084278;28;20465;-38
2022/06/20 05:24:47;;;;;;;9.17;3.53;;;17.00;99.90;;;;;;5090233;28;20751;-38
2022/06/20 05:27:20;;;;;;;5.10;3.37;;;16.90;99.90;;;;;;5086686;28;20533;-39
2022/06/20 05:29:48;;;;;;;7.40;4.10;;;16.80;99.90;;;;;;5090842;28;20426;-37
2022/06/20 05:32:24;;;;;;;7.13;4.93;;;16.70;99.90;;;;;;5089568;28;20438;-38
2022/06/20 05:35:00;;;;;;;8.90;3.60;;;16.60;99.90;;;;;;5089921;28;20514;-37
2022/06/20 05:37:34;;;;;;;8.40;3.83;;;16.50;99.90;;;;;;5091202;28;20419;-38
2022/06/20 05:40:06;;;;;;;7.73;4.00;;;16.40;99.90;;;;;;5092931;28;20437;-37
2022/06/20 05:42:33;;;;;;;7.07;3.70;;;16.40;99.90;;;;;;5092950;28;20460;-39
2022/06/20 05:45:00;;;;;;;5.07;4.00;;;16.30;99.90;;;;;;5090121;28;20446;-38
2022/06/20 05:47:31;;;;;;;10.30;4.20;;;16.30;99.90;;;;;;5091223;28;20526;-37
2022/06/20 05:50:06;;;;;;;9.43;5.37;;;16.20;99.90;;;;;;5091260;28;20463;-39
2022/06/20 05:52:34;;;;;;;6.90;4.03;;;16.10;99.90;;;;;;5091728;28;20444;-38
2022/06/20 05:55:05;;;;;;;9.10;4.00;;;16.10;99.90;;;;;;5093346;28;20422;-39
2022/06/20 05:57:34;;;;;;;9.70;4.80;;;16.10;99.90;;;;;;5092989;28;20514;-38
2022/06/20 06:00:06;;;;;;;7.07;4.97;;;16.10;99.90;;;;;;5093896;28;20431;-41
2022/06/20 06:02:36;;;;;;;13.57;5.90;;;16.10;99.90;;;;;;5092705;28;20526;-47
2022/06/20 06:05:13;;;;;;;8.40;4.90;;;16.10;99.90;;;;;;5093804;28;20473;-41
2022/06/20 06:07:46;;;;;;;9.07;5.13;;;16.10;99.90;;;;;;5091762;28;20430;-43
2022/06/20 06:10:28;;;;;;;10.03;4.73;;;16.00;99.90;;;;;;5092814;28;20502;-38
2022/06/20 06:13:05;;;;;;;7.70;5.20;;;16.00;99.90;;;;;;5093918;28;20441;-39
2022/06/20 06:16:46;;;;;;;9.40;5.73;;;16.00;99.90;;;;;;5090094;28;20496;-38
2022/06/20 06:18:32;;;;;;;17.50;5.83;;;16.00;99.90;;;;;;5092631;28;20454;-39
2022/06/20 06:21:03;;;;;;;9.37;5.37;;;16.00;99.90;;;;;;5091841;28;20532;-38
2022/06/20 06:23:30;;;;;;;10.97;5.30;;;16.00;99.90;;;;;;5090827;28;20502;-38
2022/06/20 06:25:57;;;;;;;16.37;6.10;;;16.00;99.90;;;;;;5091598;28;20465;-39
2022/06/20 06:28:26;;;;;;;9.60;4.50;;;16.00;99.90;;;;;;5091727;28;20434;-43
2022/06/20 06:30:57;;;;;;;10.47;5.53;;;15.90;99.90;;;;;;5083304;28;20841;-55
2022/06/20 06:33:27;;;;;;;8.53;4.90;;;15.90;99.90;;;;;;5086946;28;20518;-54
2022/06/20 06:36:03;;;;;;;11.33;5.70;;;15.90;99.90;;;;;;5084162;28;20466;-52
2022/06/20 06:38:34;;;;;;;8.70;5.50;;;15.90;99.90;;;;;;5092545;28;20479;-45
2022/06/20 06:41:04;;;;;;;5.83;4.37;;;16.00;99.90;;;;;;5072978;28;20591;-55
2022/06/20 06:43:37;;;;;;;8.07;6.07;;;16.10;99.90;;;;;;5075904;28;20438;-55
2022/06/20 06:46:14;;;;;;;11.10;6.03;;;16.10;99.90;;;;;;5067723;28;20437;-56
2022/06/20 06:48:47;;;;;;;6.63;5.10;;;16.10;99.90;;;;;;5081191;28;20444;-56
2022/06/20 06:51:21;;;;;;;8.13;5.00;;;16.20;99.90;;;;;;5076001;28;20522;-55
2022/06/20 06:53:55;;;;;;;7.70;4.33;;;16.30;99.90;;;;;;5080648;28;20512;-55
2022/06/20 06:56:27;;;;;;;5.70;4.13;;;16.40;99.90;;;;;;5066624;28;20788;-52
2022/06/20 06:59:07;;;;;;;8.17;4.50;;;16.40;99.90;;;;;;5065171;28;20437;-58
2022/06/20 07:01:39;;;;;;;3.50;3.20;;;16.40;99.90;;;;;;5080582;28;20519;-51
2022/06/20 07:04:16;;;;;;;5.67;4.50;;;16.40;99.90;;;;;;5082265;28;20437;-57
2022/06/20 07:06:49;;;;;;;6.70;5.30;;;16.50;99.90;;;;;;5062118;28;20507;-52
2022/06/20 07:09:22;;;;;;;9.47;5.50;;;16.60;99.90;;;;;;5072242;28;20527;-54
2022/06/20 07:11:55;;;;;;;4.73;4.30;;;16.70;99.90;;;;;;5069766;28;20534;-55
2022/06/20 07:14:23;;;;;;;7.57;5.40;;;16.80;99.90;;;;;;5078247;28;20462;-52
2022/06/20 07:16:56;;;;;;;4.80;4.30;;;16.90;99.90;;;;;;5063763;28;20446;-49
2022/06/20 07:19:25;;;;;;;7.17;5.50;;;16.90;99.90;;;;;;5071566;28;20518;-53
2022/06/20 07:21:57;;;;;;;6.93;5.27;;;17.00;99.90;;;;;;5071869;28;20467;-52
2022/06/20 07:24:27;;;;;;;7.20;5.10;;;16.90;99.90;;;;;;5080986;28;20443;-54
2022/06/20 07:27:01;;;;;;;11.83;5.63;;;16.80;99.90;;;;;;5070095;28;20455;-51
2022/06/20 07:29:35;;;;;;;6.47;4.73;;;16.80;99.90;;;;;;5071347;28;20462;-48
2022/06/20 07:32:06;;;;;;;7.10;4.97;;;16.70;99.90;;;;;;5076626;28;20549;-56
2022/06/20 07:34:36;;;;;;;9.77;4.17;;;16.70;99.90;;;;;;5077175;28;20943;-55
2022/06/20 07:37:10;;;;;;;5.90;4.13;;;16.70;99.90;;;;;;5083433;28;20537;-53
2022/06/20 07:39:43;;;;;;;5.80;4.73;;;16.70;99.90;;;;;;5078359;28;20422;-56
2022/06/20 07:42:16;;;;;;;8.50;4.77;;;16.60;99.90;;;;;;5075398;28;20477;-58
2022/06/20 07:44:48;;;;;;;6.60;5.00;;;16.60;99.90;;;;;;5067169;28;20481;-53
2022/06/20 07:47:18;;;;;;;10.93;4.33;;;16.70;99.90;;;;;;5078716;28;20470;-55
2022/06/20 07:49:49;;;;;;;7.90;4.67;;;16.70;99.90;;;;;;5085127;28;20448;-57
2022/06/20 07:52:23;;;;;;;6.20;4.10;;;16.60;99.90;;;;;;5093242;28;21105;-54
2022/06/20 07:54:53;;;;;;;7.50;4.80;;;16.50;99.90;;;;;;5081649;28;20477;-52
2022/06/20 07:57:23;;;;;;;5.50;4.30;;;16.50;99.90;;;;;;5088597;28;20464;-53
2022/06/20 07:59:58;;;;;;;7.70;4.83;;;16.50;99.90;;;;;;5077660;28;20852;-60
2022/06/20 08:02:33;;;;;;;6.40;5.07;;;16.50;99.90;;;;;;5091809;28;20533;-55
2022/06/20 08:05:02;;;;;;;7.90;4.93;;;16.60;99.90;;;;;;5081001;28;20418;-53
2022/06/20 08:07:35;;;;;;;7.30;4.70;;;16.60;99.90;;;;;;5085522;28;20467;-51
2022/06/20 08:10:07;;;;;;;8.87;4.57;;;16.60;99.90;;;;;;5089300;28;20434;-50
2022/06/20 08:12:42;;;;;;;7.13;3.97;;;16.60;99.90;;;;;;5078911;28;20463;-56
2022/06/20 08:15:15;;;;;;;7.87;4.67;;;16.70;99.90;;;;;;5088524;28;20489;-51
2022/06/20 08:17:42;;;;;;;7.93;5.30;;;16.70;99.90;;;;;;5086733;28;20472;-48
2022/06/20 08:20:11;;;;;;;6.80;4.40;;;16.70;99.90;;;;;;5080346;28;20470;-50
2022/06/20 08:22:47;;;;;;;5.33;4.83;;;16.70;99.90;;;;;;5091597;28;20490;-47
2022/06/20 08:25:19;;;;;;;6.97;4.57;;;16.80;99.90;;;;;;5074862;28;20481;-56
2022/06/20 08:27:48;;;;;;;5.77;4.20;;;16.70;99.90;;;;;;5086936;28;20508;-59
2022/06/20 08:30:18;;;;;;;8.37;4.37;;;16.70;99.90;;;;;;5079551;28;20441;-52
2022/06/20 08:32:56;;;;;;;9.90;5.37;;;16.70;99.90;;;;;;5091496;28;20487;-51
2022/06/20 08:35:31;;;;;;;10.07;5.33;;;16.70;99.90;;;;;;5083761;28;20462;-52
2022/06/20 08:38:07;;;;;;;5.33;4.83;;;16.70;99.90;;;;;;5081355;28;20527;-51
2022/06/20 08:41:05;;;;;;;7.00;5.40;;;16.70;99.90;;;;;;5094052;28;20442;-56
2022/06/20 08:44:04;;;;;;;11.00;4.87;;;16.80;99.90;;;;;;5045863;28;20473;-56
2022/06/20 08:47:01;;;;;;;5.97;4.70;;;16.80;99.90;;;;;;5078037;28;20479;-50
2022/06/20 08:50:18;;;;;;;9.60;6.07;;;16.80;99.90;;;;;;5068242;28;20762;-50
2022/06/20 08:53:04;;;;;;;8.77;5.40;;;16.90;99.90;;;;;;5027860;28;20562;-52
2022/06/20 08:56:08;;;;;;;7.43;5.70;;;16.90;99.90;;;;;;5034824;28;20506;-57
2022/06/20 08:58:48;;;;;;;9.63;5.53;;;16.90;99.90;;;;;;5091470;28;20864;-54
2022/06/20 09:01:23;;;;;;;9.97;6.33;;;16.90;99.90;;;;;;5071114;28;20430;-49
2022/06/20 09:04:31;;;;;;;10.20;6.40;;;16.90;99.90;;;;;;5082713;28;20473;-55
2022/06/20 09:07:45;;;;;;;6.93;5.80;;;16.90;99.90;;;;;;5078220;28;20438;-52
2022/06/20 09:10:24;;;;;;;10.50;6.60;;;16.90;99.90;;;;;;5074261;28;20467;-51
2022/06/20 09:13:29;;;;;;;6.87;5.70;;;16.90;99.90;;;;;;5094450;28;20427;-52
2022/06/20 09:16:03;;;;;;;8.87;7.37;;;16.80;99.90;;;;;;5081096;28;20832;-56
2022/06/20 09:18:49;;;;;;;9.83;7.20;;;16.80;99.90;;;;;;5075432;28;20443;-52
2022/06/20 09:21:28;;;;;;;7.63;6.40;;;16.80;99.90;;;;;;5084292;28;20490;-49
2022/06/20 09:24:16;;;;;;;8.60;6.40;;;16.80;99.90;;;;;;5071005;28;20463;-56
2022/06/20 09:26:54;;;;;;;9.40;6.37;;;16.80;99.90;;;;;;5086629;28;20464;-47
2022/06/20 09:29:36;;;;;;;9.30;5.67;;;16.70;99.90;;;;;;5084262;28;20525;-49
2022/06/20 09:32:29;;;;;;;9.17;6.00;;;16.70;99.90;;;;;;5081338;28;20442;-54
2022/06/20 09:35:18;;;;;;;7.13;6.23;;;16.80;99.90;;;;;;5080692;28;20494;-47
2022/06/20 09:38:30;;;;;;;8.47;6.43;;;16.80;99.90;;;;;;5086492;28;20442;-51
2022/06/20 09:41:02;;;;;;;6.93;6.00;;;16.80;99.90;;;;;;5079995;28;20490;-52
2022/06/20 09:43:42;;;;;;;9.07;5.23;;;16.90;99.90;;;;;;5085636;28;20443;-51
2022/06/20 09:46:18;;;;;;;8.20;5.30;;;17.00;99.90;;;;;;5075047;28;20514;-43
2022/06/20 09:48:53;;;;;;;8.00;5.40;;;17.10;99.90;;;;;;5075574;28;20430;-47
2022/06/20 09:51:29;;;;;;;6.80;5.83;;;17.10;99.90;;;;;;5075631;28;20458;-48
2022/06/20 09:54:10;;;;;;;7.37;5.30;;;17.10;99.90;;;;;;5088598;28;20516;-54
2022/06/20 09:56:43;;;;;;;5.73;4.67;;;17.20;99.90;;;;;;5081157;28;20450;-54
2022/06/20 09:59:17;;;;;;;6.37;4.40;;;17.20;99.90;;;;;;5075535;28;20498;-48
2022/06/20 10:01:49;;;;;;;5.63;4.47;;;17.20;99.90;;;;;;5080928;28;20494;-48
2022/06/20 10:04:25;;;;;;;11.83;6.00;;;17.20;99.90;;;;;;5091325;28;20461;-55
2022/06/20 10:07:00;;;;;;;7.50;5.40;;;17.10;99.90;;;;;;5083109;28;20450;-47
2022/06/20 10:09:35;;;;;;;7.37;4.83;;;17.10;99.90;;;;;;5090016;28;20467;-53
2022/06/20 10:12:09;;;;;;;9.20;4.73;;;17.10;99.90;;;;;;5093372;28;20478;-52
2022/06/20 10:14:50;;;;;;;7.30;4.60;;;17.10;99.90;;;;;;5082347;28;20538;-47
2022/06/20 10:17:26;;;;;;;6.10;4.73;;;17.10;99.90;;;;;;5099331;28;20422;-56
2022/06/20 10:20:04;;;;;;;10.43;4.23;;;17.10;99.90;;;;;;5070142;28;20590;-48
2022/06/20 10:22:40;;;;;;;6.80;4.47;;;17.00;99.90;;;;;;5095070;28;20458;-48
2022/06/20 10:25:32;;;;;;;7.30;5.50;;;17.00;99.90;;;;;;5085235;28;20468;-47
2022/06/20 10:28:04;;;;;;;6.90;4.60;;;17.00;99.90;;;;;;5068906;28;20503;-50
2022/06/20 10:30:45;;;;;;;6.00;4.73;;;17.00;99.90;;;;;;5087449;28;20502;-49
2022/06/20 10:33:30;;;;;;;6.50;4.77;;;17.00;99.90;;;;;;5098786;28;20494;-53
2022/06/20 10:36:14;;;;;;;6.13;4.80;;;17.00;99.90;;;;;;5090066;28;20465;-49
2022/06/20 10:38:43;;;;;;;5.30;4.77;;;17.00;99.90;;;;;;5095459;28;20442;-51
2022/06/20 10:41:21;;;;;;;5.80;4.77;;;17.00;99.90;;;;;;5085186;28;20488;-46
2022/06/20 10:43:50;;;;;;;6.10;5.23;;;17.00;99.90;;;;;;5086403;28;20439;-52
2022/06/20 10:46:26;;;;;;;9.47;5.00;;;17.00;99.90;;;;;;5094079;28;20462;-51
2022/06/20 10:49:38;;;;;;;6.27;4.90;;;17.00;99.90;;;;;;5087974;28;20490;-49
2022/06/20 10:52:22;;;;;;;6.10;4.87;;;17.10;99.90;;;;;;5066935;28;20506;-50
2022/06/20 10:55:02;;;;;;;7.50;4.60;;;17.10;99.90;;;;;;5080347;28;20474;-55
2022/06/20 10:57:47;;;;;;;6.17;4.70;;;17.00;99.90;;;;;;5088783;28;20438;-49
2022/06/20 11:00:16;;;;;;;8.47;6.03;;;17.00;99.90;;;;;;5093471;28;20430;-51
2022/06/20 11:03:19;;;;;;;9.27;6.27;;;17.10;99.90;;;;;;5081464;28;20510;-48
2022/06/20 11:05:53;;;;;;;13.63;8.10;;;17.00;99.90;;;;;;5085672;28;20459;-49
2022/06/20 11:08:33;;;;;;;8.50;6.30;;;17.00;99.90;;;;;;5092654;28;20462;-48
2022/06/20 11:11:12;;;;;;;12.43;6.17;;;17.00;99.90;;;;;;5095794;28;20534;-51
2022/06/20 11:13:48;;;;;;;6.63;5.37;;;16.90;99.90;;;;;;5086852;28;20407;-44
2022/06/20 11:16:25;;;;;;;10.63;6.40;;;16.90;99.90;;;;;;5092490;28;20497;-44
2022/06/20 11:19:05;;;;;;;7.00;5.00;;;16.90;99.90;;;;;;5067842;28;20511;-46
2022/06/20 11:21:40;;;;;;;6.73;4.73;;;16.80;99.90;;;;;;5087738;28;20497;-47
2022/06/20 11:24:21;;;;;;;8.07;5.40;;;16.80;99.90;;;;;;5092814;28;20520;-47
2022/06/20 11:27:00;;;;;;;9.00;5.90;;;16.80;99.90;;;;;;5082116;28;20461;-51
2022/06/20 11:29:46;;;;;;;8.47;6.47;;;16.80;99.90;;;;;;5088632;28;20427;-49
2022/06/20 11:32:23;;;;;;;7.50;5.60;;;16.70;99.90;;;;;;5093047;28;20569;-51
2022/06/20 11:35:16;;;;;;;9.30;5.57;;;16.70;99.90;;;;;;5079766;28;20470;-47
2022/06/20 11:38:01;;;;;;;8.90;5.30;;;16.70;99.90;;;;;;5073231;28;20547;-52
2022/06/20 11:40:39;;;;;;;7.20;4.50;;;16.80;99.90;;;;;;5093750;28;20422;-49
2022/06/20 11:43:47;;;;;;;6.17;4.60;;;16.80;99.90;;;;;;5083226;28;20499;-44
2022/06/20 11:46:56;;;;;;;4.70;3.80;;;16.80;99.90;;;;;;5084670;28;20447;-46
2022/06/20 11:49:35;;;;;;;7.07;4.20;;;16.90;99.90;;;;;;4969124;28;20467;-48
2022/06/20 11:52:11;;;;;;;7.60;3.70;;;16.90;99.90;;;;;;5085405;28;20455;-51
2022/06/20 11:54:45;;;;;;;4.47;3.30;;;16.90;99.90;;;;;;5093974;28;20426;-53
2022/06/20 11:57:19;;;;;;;6.37;4.07;;;16.90;99.90;;;;;;5084245;28;20438;-48
2022/06/20 11:59:52;;;;;;;4.47;3.63;;;16.90;99.90;;;;;;5097396;28;20485;-49
2022/06/20 12:02:39;;;;;;;5.57;3.30;;;16.90;99.90;;;;;;5081028;28;20495;-52
2022/06/20 12:05:34;;;;;;;3.07;2.77;;;17.00;99.90;;;;;;5090458;28;20426;-51
2022/06/20 12:08:10;;;;;;;3.10;2.80;;;17.00;99.90;;;;;;5083374;28;20448;-47
2022/06/20 12:10:42;;;;;;;4.23;2.47;;;17.00;99.90;;;;;;5093791;28;20438;-46
2022/06/20 12:13:24;;;;;;;2.33;2.10;;;17.00;99.90;;;;;;5083509;28;20518;-51
2022/06/20 12:16:05;;;;;;;5.03;2.30;;;17.00;99.90;;;;;;5082558;28;20463;-51
2022/06/20 12:24:28;;;;;;;4.57;2.63;;;17.00;99.90;;;;;;5090470;28;20435;-51
2022/06/20 12:26:57;;;;;;;3.70;2.80;;;17.00;99.90;;;;;;5087437;28;20538;-57
2022/06/20 12:29:28;;;;;;;4.20;2.30;;;17.00;99.90;;;;;;5082463;28;20449;-52
2022/06/20 12:31:58;;;;;;;2.70;2.30;;;16.90;99.90;;;;;;5087081;28;20434;-54
2022/06/20 12:34:42;;;;;;;3.20;2.10;;;16.80;99.90;;;;;;5088328;28;20530;-48
2022/06/20 12:37:18;;;;;;;4.40;2.90;;;16.80;99.90;;;;;;5078525;28;20446;-54
2022/06/20 12:39:54;;;;;;;2.53;2.00;;;16.80;99.90;;;;;;5087453;28;20489;-51
2022/06/20 12:42:28;;;;;;;2.40;2.20;;;16.90;99.90;;;;;;5079545;28;20466;-40
2022/06/20 12:45:11;;;;;;;9.50;6.10;;;16.90;99.90;;;;;;5089716;28;20467;-45
2022/06/20 12:47:56;;;;;;;2.90;2.40;;;16.80;99.90;;;;;;5080568;28;20439;-49
2022/06/20 12:50:25;;;;;;;1.97;1.63;;;16.80;99.90;;;;;;5074810;28;20467;-51
2022/06/20 12:53:08;;;;;;;3.20;2.13;;;16.80;99.90;;;;;;5091550;28;20734;-49
2022/06/20 12:55:52;;;;;;;4.07;2.20;;;16.80;99.90;;;;;;5091539;28;20947;-54
2022/06/20 12:58:52;;;;;;;3.13;2.00;;;16.90;99.90;;;;;;5091929;28;20441;-52
2022/06/20 13:01:25;;;;;;;2.47;1.80;;;16.90;99.90;;;;;;5087986;28;20450;-53
2022/06/20 13:04:22;;;;;;;2.27;1.80;;;16.90;99.90;;;;;;5094215;28;20442;-40
2022/06/20 13:07:24;;;;;;;3.83;2.40;;;16.90;99.90;;;;;;5082114;28;20434;-53
2022/06/20 13:10:12;;;;;;;3.30;2.13;;;17.00;99.90;;;;;;5090409;28;20473;-46
2022/06/20 13:12:52;;;;;;;3.53;2.90;;;17.00;99.90;;;;;;5086082;28;20502;-49
2022/06/20 13:15:33;;;;;;;2.30;2.10;;;17.00;99.90;;;;;;5084821;28;20490;-48
2022/06/20 13:18:16;;;;;;;2.67;1.90;;;16.90;99.90;;;;;;5077895;28;20455;-56
2022/06/20 13:20:48;;;;;;;2.53;2.33;;;17.00;99.90;;;;;;5088708;28;20513;-46
2022/06/20 13:23:32;;;;;;;2.53;2.13;;;17.10;99.90;;;;;;5088000;28;20451;-43
2022/06/20 13:26:08;;;;;;;4.67;2.47;;;17.00;99.90;;;;;;5087089;28;20453;-52
2022/06/20 13:28:44;;;;;;;2.30;1.90;;;17.10;99.90;;;;;;5084725;28;20442;-44
2022/06/20 13:31:16;;;;;;;4.27;2.30;;;17.10;99.90;;;;;;5067130;28;20458;-44
2022/06/20 13:33:50;;;;;;;3.33;1.87;;;17.10;99.90;;;;;;5093916;28;20438;-47
2022/06/20 13:36:32;;;;;;;6.63;2.33;;;17.20;99.90;;;;;;5092191;28;20526;-50
2022/06/20 13:39:12;;;;;;;5.33;3.40;;;17.20;99.90;;;;;;5091309;28;20457;-48
2022/06/20 13:41:43;;;;;;;2.20;1.70;;;17.30;99.90;;;;;;5094369;28;20447;-49